Jonesboro Heights, North Carolina
Current Conditions -  °F | °C
As of 6:55 PM on Saturday 22 Nov 2014 (Local Time) from KTTA Reporting Station
Clear Clear  
Wind Chill: 36°   Ceiling: Unl
Heat Index: 36°   Visibility: 10mi
Dew Point: 26°   Wind: 0mph
Humidity: 68%   Direction: NA
Pressure: 30.37"   Gusts: NA
Location:  35.493°N, 79.1765°W
Report Text: KTTA 222355Z AUTO 00000KT 10SM CLR 02/M03 A3037 RMK AO2 T00211033 10125 20021
Loading
Personal Weather Stations






























Interactive Weather Map New forecast layout! Learn more

10-Day Weather Forecast

Advertisements
Track Severe Weather on mobile